MMTM/TAM METAR and TAF weather

Enter ICAO airport designator
Station Type Date Time Source
MMTM METAR 2021/04/13 02:42 UTC NOAA

MMTM 130242Z E09008KT 5SM FEW 008 24/23 A2972 RMK 8/100 HZY


Station Type Date Time Source
MMTM Decoded METAR 2021/04/13 02:42 UTC NOAA

Tampico / Gen Fj Mina, Mexico (MMTM) 22-17N 097-52W
Apr 12, 2021 - 10:42 PM EDT / 2021.04.13 0242 UTC
Visibility: 5 mile(s):0
Sky conditions: mostly clear
Temperature: 75 F (24 C)
Dew Point: 73 F (23 C)
Relative Humidity: 94%
Pressure (altimeter): 29.72 in. Hg (1006 hPa)
ob: MMTM 130242Z E09008KT 5SM FEW 008 24/23 A2972 RMK 8/100 HZY
cycle: 2

Station Type Date Time Source
MMTM TAF 2021/04/13 06:37 UTC NOAA

TAF MMTM 130330Z 1306/1406 09005KT 5SM HZ BKN008
TEMPO 1311/1315 1SM BR BKN004 OVC007
FM131800 14010KT 6SM HZ SCT020
FM140300 14005KT 6SM HZ BKN010

Example: see airport list